sensor_id;sensor_type;location;lat;lon;timestamp;P1;durP1;ratioP1;P2;durP2;ratioP2
5608;SDS011;2826;51.354;9.588;2023-05-24T00:00:53;9.80;;;3.03;;
5608;SDS011;2826;51.354;9.588;2023-05-24T00:03:20;14.83;;;3.93;;
5608;SDS011;2826;51.354;9.588;2023-05-24T00:05:46;10.90;;;2.67;;
5608;SDS011;2826;51.354;9.588;2023-05-24T00:08:13;8.47;;;2.67;;
5608;SDS011;2826;51.354;9.588;2023-05-24T00:10:40;14.07;;;3.60;;
5608;SDS011;2826;51.354;9.588;2023-05-24T00:13:08;15.87;;;3.20;;
5608;SDS011;2826;51.354;9.588;2023-05-24T00:15:34;16.20;;;3.40;;
5608;SDS011;2826;51.354;9.588;2023-05-24T00:18:01;16.63;;;3.30;;
5608;SDS011;2826;51.354;9.588;2023-05-24T00:20:28;12.47;;;3.20;;
5608;SDS011;2826;51.354;9.588;2023-05-24T00:22:55;12.80;;;3.30;;
5608;SDS011;2826;51.354;9.588;2023-05-24T00:25:22;13.07;;;2.70;;
5608;SDS011;2826;51.354;9.588;2023-05-24T00:27:48;9.00;;;3.27;;
5608;SDS011;2826;51.354;9.588;2023-05-24T00:30:16;11.50;;;3.00;;
5608;SDS011;2826;51.354;9.588;2023-05-24T00:32:43;12.50;;;3.10;;
5608;SDS011;2826;51.354;9.588;2023-05-24T00:35:10;11.13;;;3.60;;
5608;SDS011;2826;51.354;9.588;2023-05-24T00:37:36;13.17;;;3.10;;
5608;SDS011;2826;51.354;9.588;2023-05-24T00:40:07;26.57;;;3.47;;
5608;SDS011;2826;51.354;9.588;2023-05-24T00:42:34;7.30;;;2.70;;
5608;SDS011;2826;51.354;9.588;2023-05-24T00:45:01;17.70;;;4.90;;
5608;SDS011;2826;51.354;9.588;2023-05-24T00:47:29;15.47;;;3.07;;
5608;SDS011;2826;51.354;9.588;2023-05-24T00:49:56;21.20;;;3.60;;
5608;SDS011;2826;51.354;9.588;2023-05-24T00:52:23;14.37;;;3.57;;
5608;SDS011;2826;51.354;9.588;2023-05-24T00:54:50;9.20;;;2.93;;
5608;SDS011;2826;51.354;9.588;2023-05-24T00:57:17;15.00;;;3.10;;
5608;SDS011;2826;51.354;9.588;2023-05-24T00:59:43;11.43;;;3.50;;
5608;SDS011;2826;51.354;9.588;2023-05-24T01:02:11;17.93;;;4.37;;
5608;SDS011;2826;51.354;9.588;2023-05-24T01:04:40;18.80;;;3.50;;
5608;SDS011;2826;51.354;9.588;2023-05-24T01:07:08;23.90;;;3.63;;
5608;SDS011;2826;51.354;9.588;2023-05-24T01:09:46;15.70;;;3.57;;
5608;SDS011;2826;51.354;9.588;2023-05-24T01:12:23;17.37;;;4.20;;
5608;SDS011;2826;51.354;9.588;2023-05-24T01:14:59;18.60;;;3.30;;
5608;SDS011;2826;51.354;9.588;2023-05-24T01:17:48;14.70;;;3.40;;
5608;SDS011;2826;51.354;9.588;2023-05-24T01:20:21;17.97;;;3.20;;
5608;SDS011;2826;51.354;9.588;2023-05-24T01:22:58;16.40;;;3.47;;
5608;SDS011;2826;51.354;9.588;2023-05-24T01:25:38;18.33;;;3.77;;
5608;SDS011;2826;51.354;9.588;2023-05-24T01:28:15;16.80;;;3.70;;
5608;SDS011;2826;51.354;9.588;2023-05-24T01:30:43;11.70;;;3.50;;
5608;SDS011;2826;51.354;9.588;2023-05-24T01:33:10;12.03;;;3.07;;
5608;SDS011;2826;51.354;9.588;2023-05-24T01:35:38;10.30;;;3.60;;
5608;SDS011;2826;51.354;9.588;2023-05-24T01:38:07;9.57;;;3.10;;
5608;SDS011;2826;51.354;9.588;2023-05-24T01:40:35;11.07;;;2.77;;
5608;SDS011;2826;51.354;9.588;2023-05-24T01:43:03;13.20;;;3.03;;
5608;SDS011;2826;51.354;9.588;2023-05-24T01:45:38;13.43;;;3.80;;
5608;SDS011;2826;51.354;9.588;2023-05-24T01:48:11;19.10;;;3.80;;
5608;SDS011;2826;51.354;9.588;2023-05-24T01:50:44;10.13;;;3.10;;
5608;SDS011;2826;51.354;9.588;2023-05-24T01:53:17;12.57;;;3.30;;
5608;SDS011;2826;51.354;9.588;2023-05-24T01:55:46;16.73;;;3.50;;
5608;SDS011;2826;51.354;9.588;2023-05-24T01:58:14;17.07;;;2.77;;
5608;SDS011;2826;51.354;9.588;2023-05-24T02:00:43;23.27;;;3.53;;
5608;SDS011;2826;51.354;9.588;2023-05-24T02:03:11;13.77;;;3.50;;
5608;SDS011;2826;51.354;9.588;2023-05-24T02:05:40;11.33;;;3.10;;
5608;SDS011;2826;51.354;9.588;2023-05-24T02:08:08;13.13;;;3.13;;
5608;SDS011;2826;51.354;9.588;2023-05-24T02:10:35;14.53;;;3.77;;
5608;SDS011;2826;51.354;9.588;2023-05-24T02:13:03;22.77;;;3.80;;
5608;SDS011;2826;51.354;9.588;2023-05-24T02:15:31;26.33;;;4.77;;
5608;SDS011;2826;51.354;9.588;2023-05-24T02:18:00;17.93;;;3.80;;
5608;SDS011;2826;51.354;9.588;2023-05-24T02:20:28;18.70;;;3.63;;
5608;SDS011;2826;51.354;9.588;2023-05-24T02:22:55;23.93;;;3.60;;
5608;SDS011;2826;51.354;9.588;2023-05-24T02:25:24;12.43;;;3.30;;
5608;SDS011;2826;51.354;9.588;2023-05-24T02:27:51;13.67;;;3.80;;
5608;SDS011;2826;51.354;9.588;2023-05-24T02:30:18;22.87;;;4.00;;
5608;SDS011;2826;51.354;9.588;2023-05-24T02:32:44;19.60;;;3.90;;
5608;SDS011;2826;51.354;9.588;2023-05-24T02:35:12;20.27;;;4.20;;
5608;SDS011;2826;51.354;9.588;2023-05-24T02:37:39;15.90;;;4.17;;
5608;SDS011;2826;51.354;9.588;2023-05-24T02:40:06;12.63;;;3.40;;
5608;SDS011;2826;51.354;9.588;2023-05-24T02:42:33;14.87;;;3.63;;
5608;SDS011;2826;51.354;9.588;2023-05-24T02:45:00;12.67;;;3.90;;
5608;SDS011;2826;51.354;9.588;2023-05-24T02:47:27;14.13;;;3.63;;
5608;SDS011;2826;51.354;9.588;2023-05-24T02:49:54;13.43;;;3.20;;
5608;SDS011;2826;51.354;9.588;2023-05-24T02:52:22;17.83;;;2.67;;
5608;SDS011;2826;51.354;9.588;2023-05-24T02:54:49;11.60;;;2.87;;
5608;SDS011;2826;51.354;9.588;2023-05-24T02:57:18;18.23;;;3.83;;
5608;SDS011;2826;51.354;9.588;2023-05-24T02:59:45;13.50;;;3.70;;
5608;SDS011;2826;51.354;9.588;2023-05-24T03:02:12;22.23;;;4.67;;
5608;SDS011;2826;51.354;9.588;2023-05-24T03:04:39;21.57;;;3.30;;
5608;SDS011;2826;51.354;9.588;2023-05-24T03:07:09;19.90;;;3.40;;
5608;SDS011;2826;51.354;9.588;2023-05-24T03:09:37;11.73;;;3.53;;
5608;SDS011;2826;51.354;9.588;2023-05-24T03:12:04;21.47;;;4.27;;
5608;SDS011;2826;51.354;9.588;2023-05-24T03:14:32;10.93;;;3.40;;
5608;SDS011;2826;51.354;9.588;2023-05-24T03:16:59;18.53;;;3.67;;
5608;SDS011;2826;51.354;9.588;2023-05-24T03:19:26;14.87;;;4.70;;
5608;SDS011;2826;51.354;9.588;2023-05-24T03:21:53;17.30;;;4.50;;
5608;SDS011;2826;51.354;9.588;2023-05-24T03:24:20;23.70;;;3.77;;
5608;SDS011;2826;51.354;9.588;2023-05-24T03:26:49;19.93;;;4.57;;
5608;SDS011;2826;51.354;9.588;2023-05-24T03:29:16;17.47;;;4.70;;
5608;SDS011;2826;51.354;9.588;2023-05-24T03:31:43;15.07;;;3.37;;
5608;SDS011;2826;51.354;9.588;2023-05-24T03:34:10;22.27;;;4.73;;
5608;SDS011;2826;51.354;9.588;2023-05-24T03:36:38;12.37;;;4.40;;
5608;SDS011;2826;51.354;9.588;2023-05-24T03:39:04;13.30;;;4.20;;
5608;SDS011;2826;51.354;9.588;2023-05-24T03:41:45;14.30;;;4.23;;
5608;SDS011;2826;51.354;9.588;2023-05-24T03:44:13;15.60;;;4.33;;
5608;SDS011;2826;51.354;9.588;2023-05-24T03:46:40;20.33;;;3.90;;
5608;SDS011;2826;51.354;9.588;2023-05-24T03:49:07;21.57;;;4.10;;
5608;SDS011;2826;51.354;9.588;2023-05-24T03:51:36;19.97;;;3.97;;
5608;SDS011;2826;51.354;9.588;2023-05-24T03:54:02;20.43;;;4.77;;
5608;SDS011;2826;51.354;9.588;2023-05-24T03:56:29;14.13;;;4.40;;
5608;SDS011;2826;51.354;9.588;2023-05-24T03:58:56;24.37;;;5.33;;
5608;SDS011;2826;51.354;9.588;2023-05-24T04:01:29;22.03;;;4.03;;
5608;SDS011;2826;51.354;9.588;2023-05-24T04:03:56;20.63;;;4.23;;
5608;SDS011;2826;51.354;9.588;2023-05-24T04:06:23;19.70;;;4.57;;
5608;SDS011;2826;51.354;9.588;2023-05-24T04:08:53;22.43;;;5.47;;
5608;SDS011;2826;51.354;9.588;2023-05-24T04:11:21;21.60;;;4.60;;
5608;SDS011;2826;51.354;9.588;2023-05-24T04:13:47;30.07;;;4.83;;
5608;SDS011;2826;51.354;9.588;2023-05-24T04:16:14;21.97;;;4.00;;
5608;SDS011;2826;51.354;9.588;2023-05-24T04:18:42;21.23;;;4.80;;
5608;SDS011;2826;51.354;9.588;2023-05-24T04:21:09;16.40;;;4.50;;
5608;SDS011;2826;51.354;9.588;2023-05-24T04:23:36;29.10;;;6.20;;
5608;SDS011;2826;51.354;9.588;2023-05-24T04:26:03;21.70;;;4.80;;
5608;SDS011;2826;51.354;9.588;2023-05-24T04:28:32;29.73;;;4.43;;
5608;SDS011;2826;51.354;9.588;2023-05-24T04:31:00;32.90;;;5.17;;
5608;SDS011;2826;51.354;9.588;2023-05-24T04:33:27;20.03;;;4.13;;
5608;SDS011;2826;51.354;9.588;2023-05-24T04:35:55;22.00;;;5.43;;
5608;SDS011;2826;51.354;9.588;2023-05-24T04:38:23;16.63;;;4.30;;
5608;SDS011;2826;51.354;9.588;2023-05-24T04:40:49;21.63;;;4.67;;
5608;SDS011;2826;51.354;9.588;2023-05-24T04:43:16;19.30;;;5.40;;
5608;SDS011;2826;51.354;9.588;2023-05-24T04:45:43;24.80;;;5.20;;
5608;SDS011;2826;51.354;9.588;2023-05-24T04:48:10;27.20;;;4.50;;
5608;SDS011;2826;51.354;9.588;2023-05-24T04:50:37;27.63;;;4.70;;
5608;SDS011;2826;51.354;9.588;2023-05-24T04:53:05;18.07;;;4.67;;
5608;SDS011;2826;51.354;9.588;2023-05-24T04:55:32;26.33;;;5.40;;
5608;SDS011;2826;51.354;9.588;2023-05-24T04:57:58;24.57;;;4.40;;
5608;SDS011;2826;51.354;9.588;2023-05-24T05:00:25;25.67;;;5.20;;
5608;SDS011;2826;51.354;9.588;2023-05-24T05:02:51;19.00;;;6.03;;
5608;SDS011;2826;51.354;9.588;2023-05-24T05:05:18;27.43;;;4.70;;
5608;SDS011;2826;51.354;9.588;2023-05-24T05:07:46;26.73;;;4.90;;
5608;SDS011;2826;51.354;9.588;2023-05-24T05:10:14;18.60;;;5.73;;
5608;SDS011;2826;51.354;9.588;2023-05-24T05:12:41;36.10;;;5.63;;
5608;SDS011;2826;51.354;9.588;2023-05-24T05:15:09;19.87;;;4.67;;
5608;SDS011;2826;51.354;9.588;2023-05-24T05:17:36;21.90;;;4.87;;
5608;SDS011;2826;51.354;9.588;2023-05-24T05:20:03;15.23;;;4.10;;
5608;SDS011;2826;51.354;9.588;2023-05-24T05:22:31;25.23;;;4.50;;
5608;SDS011;2826;51.354;9.588;2023-05-24T05:24:58;22.17;;;4.30;;
5608;SDS011;2826;51.354;9.588;2023-05-24T05:27:26;30.23;;;5.10;;
5608;SDS011;2826;51.354;9.588;2023-05-24T05:29:52;29.40;;;5.90;;
5608;SDS011;2826;51.354;9.588;2023-05-24T05:32:19;22.77;;;5.23;;
5608;SDS011;2826;51.354;9.588;2023-05-24T05:34:46;22.67;;;5.60;;
5608;SDS011;2826;51.354;9.588;2023-05-24T05:37:12;27.23;;;5.90;;
5608;SDS011;2826;51.354;9.588;2023-05-24T05:39:39;36.23;;;5.30;;
5608;SDS011;2826;51.354;9.588;2023-05-24T05:42:05;19.07;;;4.23;;
5608;SDS011;2826;51.354;9.588;2023-05-24T05:44:33;21.27;;;5.30;;
5608;SDS011;2826;51.354;9.588;2023-05-24T05:47:00;17.90;;;5.30;;
5608;SDS011;2826;51.354;9.588;2023-05-24T05:49:28;37.90;;;4.87;;
5608;SDS011;2826;51.354;9.588;2023-05-24T05:51:55;25.27;;;4.53;;
5608;SDS011;2826;51.354;9.588;2023-05-24T05:54:22;12.13;;;4.53;;
5608;SDS011;2826;51.354;9.588;2023-05-24T05:56:49;21.60;;;5.30;;
5608;SDS011;2826;51.354;9.588;2023-05-24T05:59:16;21.13;;;4.40;;
5608;SDS011;2826;51.354;9.588;2023-05-24T06:01:45;21.83;;;4.97;;
5608;SDS011;2826;51.354;9.588;2023-05-24T06:04:13;25.30;;;5.50;;
5608;SDS011;2826;51.354;9.588;2023-05-24T06:06:40;20.50;;;5.10;;
5608;SDS011;2826;51.354;9.588;2023-05-24T06:09:07;25.30;;;5.20;;
5608;SDS011;2826;51.354;9.588;2023-05-24T06:11:34;19.00;;;5.10;;
5608;SDS011;2826;51.354;9.588;2023-05-24T06:14:00;28.23;;;6.30;;
5608;SDS011;2826;51.354;9.588;2023-05-24T06:16:26;26.83;;;5.90;;
5608;SDS011;2826;51.354;9.588;2023-05-24T06:18:54;27.20;;;5.50;;
5608;SDS011;2826;51.354;9.588;2023-05-24T06:21:21;36.67;;;6.27;;
5608;SDS011;2826;51.354;9.588;2023-05-24T06:23:47;20.67;;;5.80;;
5608;SDS011;2826;51.354;9.588;2023-05-24T06:26:14;27.70;;;6.43;;
5608;SDS011;2826;51.354;9.588;2023-05-24T06:28:40;36.50;;;6.47;;
5608;SDS011;2826;51.354;9.588;2023-05-24T06:31:07;26.43;;;7.30;;
5608;SDS011;2826;51.354;9.588;2023-05-24T06:33:34;29.40;;;6.73;;
5608;SDS011;2826;51.354;9.588;2023-05-24T06:36:02;23.13;;;5.70;;
5608;SDS011;2826;51.354;9.588;2023-05-24T06:38:29;28.03;;;6.17;;
5608;SDS011;2826;51.354;9.588;2023-05-24T06:40:57;37.10;;;6.80;;
5608;SDS011;2826;51.354;9.588;2023-05-24T06:43:23;22.10;;;6.70;;
5608;SDS011;2826;51.354;9.588;2023-05-24T06:45:50;31.60;;;6.43;;
5608;SDS011;2826;51.354;9.588;2023-05-24T06:48:16;25.87;;;6.37;;
5608;SDS011;2826;51.354;9.588;2023-05-24T06:50:43;28.23;;;6.70;;
5608;SDS011;2826;51.354;9.588;2023-05-24T06:53:11;25.63;;;6.10;;
5608;SDS011;2826;51.354;9.588;2023-05-24T06:55:38;24.13;;;6.70;;
5608;SDS011;2826;51.354;9.588;2023-05-24T06:58:04;31.83;;;6.93;;
5608;SDS011;2826;51.354;9.588;2023-05-24T07:00:31;39.93;;;6.83;;
5608;SDS011;2826;51.354;9.588;2023-05-24T07:02:58;37.83;;;7.50;;
5608;SDS011;2826;51.354;9.588;2023-05-24T07:05:25;33.77;;;6.70;;
5608;SDS011;2826;51.354;9.588;2023-05-24T07:07:51;29.83;;;6.33;;
5608;SDS011;2826;51.354;9.588;2023-05-24T07:10:19;32.87;;;6.90;;
5608;SDS011;2826;51.354;9.588;2023-05-24T07:12:46;31.60;;;8.00;;
5608;SDS011;2826;51.354;9.588;2023-05-24T07:15:12;24.00;;;7.10;;
5608;SDS011;2826;51.354;9.588;2023-05-24T07:17:39;30.20;;;7.43;;
5608;SDS011;2826;51.354;9.588;2023-05-24T07:20:06;28.00;;;6.83;;
5608;SDS011;2826;51.354;9.588;2023-05-24T07:22:35;31.10;;;7.33;;
5608;SDS011;2826;51.354;9.588;2023-05-24T07:25:02;24.87;;;7.50;;
5608;SDS011;2826;51.354;9.588;2023-05-24T07:27:31;30.10;;;7.20;;
5608;SDS011;2826;51.354;9.588;2023-05-24T07:29:57;28.03;;;7.73;;
5608;SDS011;2826;51.354;9.588;2023-05-24T07:32:24;35.67;;;7.33;;
5608;SDS011;2826;51.354;9.588;2023-05-24T07:34:51;32.37;;;9.40;;
5608;SDS011;2826;51.354;9.588;2023-05-24T07:37:18;28.67;;;7.07;;
5608;SDS011;2826;51.354;9.588;2023-05-24T07:39:44;29.93;;;7.00;;
5608;SDS011;2826;51.354;9.588;2023-05-24T07:42:11;29.03;;;7.30;;
5608;SDS011;2826;51.354;9.588;2023-05-24T07:44:39;40.50;;;7.70;;
5608;SDS011;2826;51.354;9.588;2023-05-24T07:47:06;32.50;;;7.47;;
5608;SDS011;2826;51.354;9.588;2023-05-24T07:49:32;21.27;;;6.40;;
5608;SDS011;2826;51.354;9.588;2023-05-24T07:52:00;27.60;;;7.50;;
5608;SDS011;2826;51.354;9.588;2023-05-24T07:54:28;24.50;;;6.70;;
5608;SDS011;2826;51.354;9.588;2023-05-24T07:56:54;26.30;;;6.23;;
5608;SDS011;2826;51.354;9.588;2023-05-24T07:59:21;20.60;;;7.23;;
5608;SDS011;2826;51.354;9.588;2023-05-24T08:01:49;24.43;;;6.80;;
5608;SDS011;2826;51.354;9.588;2023-05-24T08:04:16;21.30;;;5.87;;
5608;SDS011;2826;51.354;9.588;2023-05-24T08:06:43;21.97;;;5.60;;
5608;SDS011;2826;51.354;9.588;2023-05-24T08:09:11;19.70;;;5.10;;
5608;SDS011;2826;51.354;9.588;2023-05-24T08:11:38;20.67;;;4.87;;
5608;SDS011;2826;51.354;9.588;2023-05-24T08:14:06;28.57;;;6.37;;
5608;SDS011;2826;51.354;9.588;2023-05-24T08:16:32;26.50;;;6.43;;
5608;SDS011;2826;51.354;9.588;2023-05-24T08:19:00;30.00;;;6.33;;
5608;SDS011;2826;51.354;9.588;2023-05-24T08:21:27;15.03;;;4.20;;
5608;SDS011;2826;51.354;9.588;2023-05-24T08:23:54;31.87;;;4.77;;
5608;SDS011;2826;51.354;9.588;2023-05-24T08:26:21;21.03;;;4.97;;
5608;SDS011;2826;51.354;9.588;2023-05-24T08:28:48;27.93;;;5.30;;
5608;SDS011;2826;51.354;9.588;2023-05-24T08:31:15;23.10;;;5.77;;
5608;SDS011;2826;51.354;9.588;2023-05-24T08:33:41;15.93;;;5.17;;
5608;SDS011;2826;51.354;9.588;2023-05-24T08:36:10;24.70;;;5.10;;
5608;SDS011;2826;51.354;9.588;2023-05-24T08:38:37;23.63;;;4.77;;
5608;SDS011;2826;51.354;9.588;2023-05-24T08:41:04;17.37;;;4.70;;
5608;SDS011;2826;51.354;9.588;2023-05-24T08:43:32;22.53;;;5.47;;
5608;SDS011;2826;51.354;9.588;2023-05-24T08:46:00;8.93;;;3.03;;
5608;SDS011;2826;51.354;9.588;2023-05-24T08:48:29;17.67;;;4.93;;
5608;SDS011;2826;51.354;9.588;2023-05-24T08:50:56;11.00;;;3.47;;
5608;SDS011;2826;51.354;9.588;2023-05-24T08:53:24;14.10;;;3.73;;
5608;SDS011;2826;51.354;9.588;2023-05-24T08:55:52;13.40;;;3.90;;
5608;SDS011;2826;51.354;9.588;2023-05-24T08:58:20;13.10;;;3.70;;
5608;SDS011;2826;51.354;9.588;2023-05-24T09:00:47;11.73;;;3.50;;
5608;SDS011;2826;51.354;9.588;2023-05-24T09:03:13;15.10;;;4.40;;
5608;SDS011;2826;51.354;9.588;2023-05-24T09:05:43;15.33;;;3.67;;
5608;SDS011;2826;51.354;9.588;2023-05-24T09:08:10;13.33;;;4.90;;
5608;SDS011;2826;51.354;9.588;2023-05-24T09:10:43;14.97;;;3.87;;
5608;SDS011;2826;51.354;9.588;2023-05-24T09:13:10;12.43;;;3.47;;
5608;SDS011;2826;51.354;9.588;2023-05-24T09:15:39;14.37;;;4.30;;
5608;SDS011;2826;51.354;9.588;2023-05-24T09:18:05;17.33;;;4.00;;
5608;SDS011;2826;51.354;9.588;2023-05-24T09:20:32;10.30;;;3.90;;
5608;SDS011;2826;51.354;9.588;2023-05-24T09:22:58;13.60;;;3.67;;
5608;SDS011;2826;51.354;9.588;2023-05-24T09:25:29;18.37;;;4.20;;
5608;SDS011;2826;51.354;9.588;2023-05-24T09:27:57;13.17;;;4.50;;
5608;SDS011;2826;51.354;9.588;2023-05-24T09:30:23;13.63;;;3.70;;
5608;SDS011;2826;51.354;9.588;2023-05-24T09:32:53;17.67;;;4.00;;
5608;SDS011;2826;51.354;9.588;2023-05-24T09:35:21;20.40;;;4.00;;
5608;SDS011;2826;51.354;9.588;2023-05-24T09:37:48;28.43;;;4.60;;
5608;SDS011;2826;51.354;9.588;2023-05-24T09:40:18;14.00;;;3.70;;
5608;SDS011;2826;51.354;9.588;2023-05-24T09:42:46;12.80;;;4.10;;
5608;SDS011;2826;51.354;9.588;2023-05-24T09:45:17;10.70;;;3.37;;
5608;SDS011;2826;51.354;9.588;2023-05-24T09:47:44;13.60;;;3.70;;
5608;SDS011;2826;51.354;9.588;2023-05-24T09:50:11;9.27;;;3.13;;
5608;SDS011;2826;51.354;9.588;2023-05-24T09:52:39;17.27;;;3.17;;
5608;SDS011;2826;51.354;9.588;2023-05-24T09:55:10;13.63;;;2.93;;
5608;SDS011;2826;51.354;9.588;2023-05-24T09:57:37;13.67;;;3.23;;
5608;SDS011;2826;51.354;9.588;2023-05-24T10:00:04;10.10;;;2.90;;
5608;SDS011;2826;51.354;9.588;2023-05-24T10:02:40;13.90;;;3.60;;
5608;SDS011;2826;51.354;9.588;2023-05-24T10:05:08;8.30;;;2.93;;
5608;SDS011;2826;51.354;9.588;2023-05-24T10:07:35;12.20;;;3.27;;
5608;SDS011;2826;51.354;9.588;2023-05-24T10:10:03;12.10;;;3.50;;
5608;SDS011;2826;51.354;9.588;2023-05-24T10:12:30;19.17;;;4.20;;
5608;SDS011;2826;51.354;9.588;2023-05-24T10:15:00;16.00;;;3.60;;
5608;SDS011;2826;51.354;9.588;2023-05-24T10:17:27;15.63;;;3.70;;
5608;SDS011;2826;51.354;9.588;2023-05-24T10:19:56;29.67;;;13.30;;
5608;SDS011;2826;51.354;9.588;2023-05-24T10:22:23;14.87;;;3.83;;
5608;SDS011;2826;51.354;9.588;2023-05-24T10:24:52;12.83;;;3.67;;
5608;SDS011;2826;51.354;9.588;2023-05-24T10:27:25;20.40;;;4.27;;
5608;SDS011;2826;51.354;9.588;2023-05-24T10:29:57;12.13;;;3.00;;
5608;SDS011;2826;51.354;9.588;2023-05-24T10:32:30;11.60;;;3.13;;
5608;SDS011;2826;51.354;9.588;2023-05-24T10:35:00;10.03;;;3.53;;
5608;SDS011;2826;51.354;9.588;2023-05-24T10:37:29;16.30;;;3.60;;
5608;SDS011;2826;51.354;9.588;2023-05-24T10:39:56;17.17;;;3.40;;
5608;SDS011;2826;51.354;9.588;2023-05-24T10:42:23;10.23;;;4.67;;
5608;SDS011;2826;51.354;9.588;2023-05-24T10:44:51;11.10;;;4.07;;
5608;SDS011;2826;51.354;9.588;2023-05-24T10:47:19;11.47;;;3.37;;
5608;SDS011;2826;51.354;9.588;2023-05-24T10:49:46;15.33;;;3.50;;
5608;SDS011;2826;51.354;9.588;2023-05-24T10:52:16;13.70;;;3.40;;
5608;SDS011;2826;51.354;9.588;2023-05-24T10:55:03;10.27;;;3.10;;
5608;SDS011;2826;51.354;9.588;2023-05-24T10:57:32;16.57;;;4.17;;
5608;SDS011;2826;51.354;9.588;2023-05-24T11:02:58;17.13;;;4.00;;
5608;SDS011;2826;51.354;9.588;2023-05-24T11:05:31;16.00;;;4.20;;
5608;SDS011;2826;51.354;9.588;2023-05-24T11:07:59;11.23;;;2.60;;
5608;SDS011;2826;51.354;9.588;2023-05-24T11:10:31;11.60;;;3.57;;
5608;SDS011;2826;51.354;9.588;2023-05-24T11:12:58;14.23;;;3.50;;
5608;SDS011;2826;51.354;9.588;2023-05-24T11:15:25;14.33;;;3.00;;
5608;SDS011;2826;51.354;9.588;2023-05-24T11:20:40;14.30;;;3.67;;
5608;SDS011;2826;51.354;9.588;2023-05-24T11:23:09;8.73;;;2.90;;
5608;SDS011;2826;51.354;9.588;2023-05-24T11:25:36;109.93;;;14.43;;
5608;SDS011;2826;51.354;9.588;2023-05-24T11:28:05;16.77;;;4.40;;
5608;SDS011;2826;51.354;9.588;2023-05-24T11:30:33;13.87;;;4.03;;
5608;SDS011;2826;51.354;9.588;2023-05-24T11:32:59;15.20;;;3.80;;
5608;SDS011;2826;51.354;9.588;2023-05-24T11:35:26;16.37;;;4.63;;
5608;SDS011;2826;51.354;9.588;2023-05-24T11:37:54;9.50;;;3.63;;
5608;SDS011;2826;51.354;9.588;2023-05-24T11:40:23;13.93;;;3.90;;
5608;SDS011;2826;51.354;9.588;2023-05-24T11:42:50;12.50;;;3.93;;
5608;SDS011;2826;51.354;9.588;2023-05-24T11:45:17;12.33;;;4.27;;
5608;SDS011;2826;51.354;9.588;2023-05-24T11:47:45;29.97;;;4.50;;
5608;SDS011;2826;51.354;9.588;2023-05-24T11:50:13;21.90;;;4.17;;
5608;SDS011;2826;51.354;9.588;2023-05-24T11:52:41;18.37;;;3.80;;
5608;SDS011;2826;51.354;9.588;2023-05-24T11:55:10;22.23;;;4.43;;
5608;SDS011;2826;51.354;9.588;2023-05-24T11:57:40;19.50;;;5.13;;
5608;SDS011;2826;51.354;9.588;2023-05-24T12:00:11;27.77;;;4.53;;
5608;SDS011;2826;51.354;9.588;2023-05-24T12:02:41;14.43;;;3.80;;
5608;SDS011;2826;51.354;9.588;2023-05-24T12:05:08;13.70;;;3.80;;
5608;SDS011;2826;51.354;9.588;2023-05-24T12:07:36;25.17;;;4.10;;
5608;SDS011;2826;51.354;9.588;2023-05-24T12:10:05;19.90;;;4.13;;
5608;SDS011;2826;51.354;9.588;2023-05-24T12:12:32;18.60;;;5.20;;
5608;SDS011;2826;51.354;9.588;2023-05-24T12:15:00;24.67;;;3.97;;
5608;SDS011;2826;51.354;9.588;2023-05-24T12:17:26;12.43;;;3.80;;
5608;SDS011;2826;51.354;9.588;2023-05-24T12:19:53;15.70;;;4.50;;
5608;SDS011;2826;51.354;9.588;2023-05-24T12:22:24;25.60;;;4.53;;
5608;SDS011;2826;51.354;9.588;2023-05-24T12:24:53;20.67;;;4.40;;
5608;SDS011;2826;51.354;9.588;2023-05-24T12:27:24;17.77;;;3.73;;
5608;SDS011;2826;51.354;9.588;2023-05-24T12:29:52;16.13;;;3.67;;
5608;SDS011;2826;51.354;9.588;2023-05-24T12:32:20;15.03;;;3.60;;
5608;SDS011;2826;51.354;9.588;2023-05-24T12:34:48;10.47;;;3.50;;
5608;SDS011;2826;51.354;9.588;2023-05-24T12:37:15;8.57;;;2.93;;
5608;SDS011;2826;51.354;9.588;2023-05-24T12:39:43;16.70;;;4.03;;
5608;SDS011;2826;51.354;9.588;2023-05-24T12:42:10;19.97;;;4.50;;
5608;SDS011;2826;51.354;9.588;2023-05-24T12:44:37;11.63;;;3.53;;
5608;SDS011;2826;51.354;9.588;2023-05-24T12:47:05;14.70;;;2.97;;
5608;SDS011;2826;51.354;9.588;2023-05-24T12:49:34;26.20;;;4.10;;
5608;SDS011;2826;51.354;9.588;2023-05-24T12:52:01;14.13;;;3.27;;
5608;SDS011;2826;51.354;9.588;2023-05-24T12:54:28;21.10;;;4.30;;
5608;SDS011;2826;51.354;9.588;2023-05-24T12:56:55;16.70;;;4.30;;
5608;SDS011;2826;51.354;9.588;2023-05-24T12:59:24;20.37;;;3.60;;
5608;SDS011;2826;51.354;9.588;2023-05-24T13:01:52;10.73;;;3.50;;
5608;SDS011;2826;51.354;9.588;2023-05-24T13:04:19;14.87;;;3.50;;
5608;SDS011;2826;51.354;9.588;2023-05-24T13:06:49;13.23;;;3.20;;
5608;SDS011;2826;51.354;9.588;2023-05-24T13:09:16;15.50;;;3.50;;
5608;SDS011;2826;51.354;9.588;2023-05-24T13:11:45;10.17;;;3.23;;
5608;SDS011;2826;51.354;9.588;2023-05-24T13:14:12;12.07;;;4.53;;
5608;SDS011;2826;51.354;9.588;2023-05-24T13:16:39;11.10;;;3.87;;
5608;SDS011;2826;51.354;9.588;2023-05-24T13:19:06;10.43;;;3.50;;
5608;SDS011;2826;51.354;9.588;2023-05-24T13:21:34;14.30;;;3.40;;
5608;SDS011;2826;51.354;9.588;2023-05-24T13:24:02;8.20;;;3.30;;
5608;SDS011;2826;51.354;9.588;2023-05-24T13:26:29;11.10;;;3.90;;
5608;SDS011;2826;51.354;9.588;2023-05-24T13:29:01;14.17;;;3.30;;
5608;SDS011;2826;51.354;9.588;2023-05-24T13:31:28;13.70;;;3.13;;
5608;SDS011;2826;51.354;9.588;2023-05-24T13:33:54;9.37;;;2.73;;
5608;SDS011;2826;51.354;9.588;2023-05-24T13:36:21;8.87;;;3.17;;
5608;SDS011;2826;51.354;9.588;2023-05-24T13:38:48;9.37;;;2.73;;
5608;SDS011;2826;51.354;9.588;2023-05-24T13:41:16;8.40;;;2.57;;
5608;SDS011;2826;51.354;9.588;2023-05-24T13:43:43;9.80;;;2.83;;
5608;SDS011;2826;51.354;9.588;2023-05-24T13:46:10;9.63;;;3.20;;
5608;SDS011;2826;51.354;9.588;2023-05-24T13:48:37;12.73;;;2.80;;
5608;SDS011;2826;51.354;9.588;2023-05-24T13:51:04;9.23;;;2.20;;
5608;SDS011;2826;51.354;9.588;2023-05-24T13:53:31;12.53;;;3.23;;
5608;SDS011;2826;51.354;9.588;2023-05-24T13:55:58;4.40;;;2.13;;
5608;SDS011;2826;51.354;9.588;2023-05-24T13:58:26;6.13;;;2.20;;
5608;SDS011;2826;51.354;9.588;2023-05-24T14:00:52;5.57;;;2.00;;
5608;SDS011;2826;51.354;9.588;2023-05-24T14:03:20;5.50;;;2.60;;
5608;SDS011;2826;51.354;9.588;2023-05-24T14:05:47;3.70;;;1.70;;
5608;SDS011;2826;51.354;9.588;2023-05-24T14:08:13;6.30;;;2.00;;
5608;SDS011;2826;51.354;9.588;2023-05-24T14:10:40;4.67;;;1.93;;
5608;SDS011;2826;51.354;9.588;2023-05-24T14:13:07;7.13;;;1.90;;
5608;SDS011;2826;51.354;9.588;2023-05-24T14:15:35;5.53;;;2.00;;
5608;SDS011;2826;51.354;9.588;2023-05-24T14:18:01;3.13;;;1.87;;
5608;SDS011;2826;51.354;9.588;2023-05-24T14:20:31;6.30;;;2.10;;
5608;SDS011;2826;51.354;9.588;2023-05-24T14:22:58;5.03;;;2.07;;
5608;SDS011;2826;51.354;9.588;2023-05-24T14:25:25;4.30;;;1.80;;
5608;SDS011;2826;51.354;9.588;2023-05-24T14:27:51;5.83;;;1.80;;
5608;SDS011;2826;51.354;9.588;2023-05-24T14:30:18;4.77;;;1.77;;
5608;SDS011;2826;51.354;9.588;2023-05-24T14:32:46;6.50;;;2.07;;
5608;SDS011;2826;51.354;9.588;2023-05-24T14:35:12;3.07;;;1.70;;
5608;SDS011;2826;51.354;9.588;2023-05-24T14:37:39;8.30;;;2.00;;
5608;SDS011;2826;51.354;9.588;2023-05-24T14:40:06;6.07;;;2.20;;
5608;SDS011;2826;51.354;9.588;2023-05-24T14:42:33;5.30;;;1.60;;
5608;SDS011;2826;51.354;9.588;2023-05-24T14:45:00;4.10;;;1.93;;
5608;SDS011;2826;51.354;9.588;2023-05-24T14:47:27;4.93;;;1.70;;
5608;SDS011;2826;51.354;9.588;2023-05-24T14:49:55;4.10;;;1.70;;
5608;SDS011;2826;51.354;9.588;2023-05-24T14:52:21;3.23;;;1.73;;
5608;SDS011;2826;51.354;9.588;2023-05-24T14:54:48;3.40;;;1.30;;
5608;SDS011;2826;51.354;9.588;2023-05-24T14:57:15;4.37;;;2.50;;
5608;SDS011;2826;51.354;9.588;2023-05-24T14:59:41;4.00;;;1.63;;
5608;SDS011;2826;51.354;9.588;2023-05-24T15:02:08;3.70;;;1.77;;
5608;SDS011;2826;51.354;9.588;2023-05-24T15:04:35;5.27;;;1.87;;
5608;SDS011;2826;51.354;9.588;2023-05-24T15:07:03;5.50;;;1.93;;
5608;SDS011;2826;51.354;9.588;2023-05-24T15:09:29;7.10;;;2.27;;
5608;SDS011;2826;51.354;9.588;2023-05-24T15:11:56;7.70;;;2.53;;